Terminal Aerodrome Forecast
Issued by NWS

Home | Current Version | Previous Version | Text Only | Print | Product List | Glossary On
Versions: 1 2 3 4 5 6 7 8 9 10 11 12 13 14 15 16 17 18 19 20 21 22 23 24 25 26 27 28 29 30 31 32 33 34 35 36 37 38 39 40 41 42 43 44 45 46 47 48 49 50
464
FTAK31 PANC 272341
TAFASN
TAF
PASN 272341Z 2800/2824 02012KT 6SM -SHRA BR SCT007 OVC015
      TEMPO 2800/2803 BKN007
     FM280300 01006KT 5SM BR BKN005 OVC015
     FM281500 VRB03KT 5SM BR OVC015
     FM282200 14010KT 6SM BR OVC015=

USA.gov is the U.S. government's official web portal to all federal, state and local government web resources and services.